sensor_id;sensor_type;location;lat;lon;timestamp;P1;durP1;ratioP1;P2;durP2;ratioP2
20482;SDS011;10400;53.198;6.592;2023-08-30T00:00:18;14.88;;;13.32;;
20482;SDS011;10400;53.198;6.592;2023-08-30T00:02:44;15.68;;;14.07;;
20482;SDS011;10400;53.198;6.592;2023-08-30T00:05:10;16.73;;;13.98;;
20482;SDS011;10400;53.198;6.592;2023-08-30T00:07:36;15.30;;;13.70;;
20482;SDS011;10400;53.198;6.592;2023-08-30T00:10:02;15.95;;;13.65;;
20482;SDS011;10400;53.198;6.592;2023-08-30T00:12:28;16.63;;;13.65;;
20482;SDS011;10400;53.198;6.592;2023-08-30T00:14:54;15.02;;;13.38;;
20482;SDS011;10400;53.198;6.592;2023-08-30T00:17:21;14.85;;;13.35;;
20482;SDS011;10400;53.198;6.592;2023-08-30T00:19:47;15.32;;;13.73;;
20482;SDS011;10400;53.198;6.592;2023-08-30T00:22:13;17.50;;;13.68;;
20482;SDS011;10400;53.198;6.592;2023-08-30T00:24:39;16.40;;;12.95;;
20482;SDS011;10400;53.198;6.592;2023-08-30T00:27:05;16.08;;;12.93;;
20482;SDS011;10400;53.198;6.592;2023-08-30T00:29:31;15.57;;;12.80;;
20482;SDS011;10400;53.198;6.592;2023-08-30T00:31:56;15.27;;;13.35;;
20482;SDS011;10400;53.198;6.592;2023-08-30T00:34:22;14.38;;;12.88;;
20482;SDS011;10400;53.198;6.592;2023-08-30T00:36:48;14.82;;;13.25;;
20482;SDS011;10400;53.198;6.592;2023-08-30T00:39:13;17.80;;;13.85;;
20482;SDS011;10400;53.198;6.592;2023-08-30T00:41:40;16.70;;;14.75;;
20482;SDS011;10400;53.198;6.592;2023-08-30T00:44:05;14.50;;;13.00;;
20482;SDS011;10400;53.198;6.592;2023-08-30T00:46:31;18.75;;;13.65;;
20482;SDS011;10400;53.198;6.592;2023-08-30T00:48:58;16.65;;;13.35;;
20482;SDS011;10400;53.198;6.592;2023-08-30T00:51:27;16.65;;;13.70;;
20482;SDS011;10400;53.198;6.592;2023-08-30T00:53:56;16.52;;;13.07;;
20482;SDS011;10400;53.198;6.592;2023-08-30T00:56:23;15.38;;;13.20;;
20482;SDS011;10400;53.198;6.592;2023-08-30T00:58:49;16.30;;;12.93;;
20482;SDS011;10400;53.198;6.592;2023-08-30T01:01:15;15.18;;;11.98;;
20482;SDS011;10400;53.198;6.592;2023-08-30T01:03:43;16.75;;;13.18;;
20482;SDS011;10400;53.198;6.592;2023-08-30T01:06:09;18.40;;;12.38;;
20482;SDS011;10400;53.198;6.592;2023-08-30T01:08:35;14.57;;;12.48;;
20482;SDS011;10400;53.198;6.592;2023-08-30T01:13:53;14.45;;;11.73;;
20482;SDS011;10400;53.198;6.592;2023-08-30T01:16:24;16.20;;;11.73;;
20482;SDS011;10400;53.198;6.592;2023-08-30T01:18:50;13.25;;;11.85;;
20482;SDS011;10400;53.198;6.592;2023-08-30T01:21:32;19.13;;;12.02;;
20482;SDS011;10400;53.198;6.592;2023-08-30T01:24:30;13.57;;;11.85;;
20482;SDS011;10400;53.198;6.592;2023-08-30T01:27:07;15.27;;;10.63;;
20482;SDS011;10400;53.198;6.592;2023-08-30T01:29:34;12.60;;;11.10;;
20482;SDS011;10400;53.198;6.592;2023-08-30T01:32:03;14.13;;;11.55;;
20482;SDS011;10400;53.198;6.592;2023-08-30T01:34:29;13.70;;;11.73;;
20482;SDS011;10400;53.198;6.592;2023-08-30T01:36:56;13.73;;;11.48;;
20482;SDS011;10400;53.198;6.592;2023-08-30T01:39:22;14.82;;;10.98;;
20482;SDS011;10400;53.198;6.592;2023-08-30T01:41:49;14.07;;;11.35;;
20482;SDS011;10400;53.198;6.592;2023-08-30T01:44:17;12.35;;;10.75;;
20482;SDS011;10400;53.198;6.592;2023-08-30T01:46:43;14.13;;;11.60;;
20482;SDS011;10400;53.198;6.592;2023-08-30T01:49:11;15.63;;;11.68;;
20482;SDS011;10400;53.198;6.592;2023-08-30T01:51:37;14.38;;;11.77;;
20482;SDS011;10400;53.198;6.592;2023-08-30T01:54:03;14.27;;;12.20;;
20482;SDS011;10400;53.198;6.592;2023-08-30T01:56:30;15.65;;;12.65;;
20482;SDS011;10400;53.198;6.592;2023-08-30T01:58:56;15.70;;;11.68;;
20482;SDS011;10400;53.198;6.592;2023-08-30T02:01:21;13.52;;;12.13;;
20482;SDS011;10400;53.198;6.592;2023-08-30T02:03:47;14.38;;;11.18;;
20482;SDS011;10400;53.198;6.592;2023-08-30T02:06:24;15.43;;;11.45;;
20482;SDS011;10400;53.198;6.592;2023-08-30T02:11:39;14.15;;;11.73;;
20482;SDS011;10400;53.198;6.592;2023-08-30T02:14:10;14.57;;;11.32;;
20482;SDS011;10400;53.198;6.592;2023-08-30T02:16:37;17.92;;;12.50;;
20482;SDS011;10400;53.198;6.592;2023-08-30T02:19:05;14.75;;;12.00;;
20482;SDS011;10400;53.198;6.592;2023-08-30T02:21:32;14.48;;;11.93;;
20482;SDS011;10400;53.198;6.592;2023-08-30T02:23:58;15.23;;;11.93;;
20482;SDS011;10400;53.198;6.592;2023-08-30T02:26:24;16.67;;;12.73;;
20482;SDS011;10400;53.198;6.592;2023-08-30T02:28:49;13.63;;;12.05;;
20482;SDS011;10400;53.198;6.592;2023-08-30T02:31:15;17.48;;;13.20;;
20482;SDS011;10400;53.198;6.592;2023-08-30T02:33:40;15.45;;;11.85;;
20482;SDS011;10400;53.198;6.592;2023-08-30T02:36:06;15.40;;;12.00;;
20482;SDS011;10400;53.198;6.592;2023-08-30T02:38:33;15.38;;;12.02;;
20482;SDS011;10400;53.198;6.592;2023-08-30T02:40:58;15.00;;;11.68;;
20482;SDS011;10400;53.198;6.592;2023-08-30T02:43:24;15.57;;;11.18;;
20482;SDS011;10400;53.198;6.592;2023-08-30T02:45:49;15.95;;;12.10;;
20482;SDS011;10400;53.198;6.592;2023-08-30T02:48:16;14.52;;;12.27;;
20482;SDS011;10400;53.198;6.592;2023-08-30T02:50:42;14.93;;;12.55;;
20482;SDS011;10400;53.198;6.592;2023-08-30T02:53:07;14.63;;;10.85;;
20482;SDS011;10400;53.198;6.592;2023-08-30T02:55:35;14.40;;;11.40;;
20482;SDS011;10400;53.198;6.592;2023-08-30T02:58:00;16.08;;;11.85;;
20482;SDS011;10400;53.198;6.592;2023-08-30T03:00:26;15.45;;;10.95;;
20482;SDS011;10400;53.198;6.592;2023-08-30T03:02:52;14.10;;;11.70;;
20482;SDS011;10400;53.198;6.592;2023-08-30T03:05:17;14.65;;;11.82;;
20482;SDS011;10400;53.198;6.592;2023-08-30T03:07:43;16.75;;;12.32;;
20482;SDS011;10400;53.198;6.592;2023-08-30T03:10:09;14.02;;;11.63;;
20482;SDS011;10400;53.198;6.592;2023-08-30T03:12:36;14.35;;;11.73;;
20482;SDS011;10400;53.198;6.592;2023-08-30T03:15:02;14.93;;;11.70;;
20482;SDS011;10400;53.198;6.592;2023-08-30T03:17:29;18.13;;;12.40;;
20482;SDS011;10400;53.198;6.592;2023-08-30T03:19:54;16.55;;;11.60;;
20482;SDS011;10400;53.198;6.592;2023-08-30T03:22:20;16.55;;;11.75;;
20482;SDS011;10400;53.198;6.592;2023-08-30T03:24:46;14.30;;;11.52;;
20482;SDS011;10400;53.198;6.592;2023-08-30T03:27:12;16.50;;;11.60;;
20482;SDS011;10400;53.198;6.592;2023-08-30T03:29:37;14.20;;;12.05;;
20482;SDS011;10400;53.198;6.592;2023-08-30T03:32:03;16.95;;;12.60;;
20482;SDS011;10400;53.198;6.592;2023-08-30T03:34:29;13.88;;;11.23;;
20482;SDS011;10400;53.198;6.592;2023-08-30T03:36:55;17.48;;;12.50;;
20482;SDS011;10400;53.198;6.592;2023-08-30T03:39:21;16.70;;;11.95;;
20482;SDS011;10400;53.198;6.592;2023-08-30T03:41:47;17.25;;;12.02;;
20482;SDS011;10400;53.198;6.592;2023-08-30T03:44:13;14.57;;;12.00;;
20482;SDS011;10400;53.198;6.592;2023-08-30T03:46:38;16.83;;;11.95;;
20482;SDS011;10400;53.198;6.592;2023-08-30T03:49:04;16.67;;;12.25;;
20482;SDS011;10400;53.198;6.592;2023-08-30T03:51:29;16.98;;;12.73;;
20482;SDS011;10400;53.198;6.592;2023-08-30T03:53:55;17.00;;;12.25;;
20482;SDS011;10400;53.198;6.592;2023-08-30T03:56:23;17.77;;;12.88;;
20482;SDS011;10400;53.198;6.592;2023-08-30T03:58:49;19.10;;;12.85;;
20482;SDS011;10400;53.198;6.592;2023-08-30T04:01:15;16.52;;;12.93;;
20482;SDS011;10400;53.198;6.592;2023-08-30T04:03:40;18.10;;;11.95;;
20482;SDS011;10400;53.198;6.592;2023-08-30T04:06:06;13.27;;;11.50;;
20482;SDS011;10400;53.198;6.592;2023-08-30T04:08:31;15.63;;;11.93;;
20482;SDS011;10400;53.198;6.592;2023-08-30T04:10:57;14.73;;;11.93;;
20482;SDS011;10400;53.198;6.592;2023-08-30T04:13:23;14.38;;;11.63;;
20482;SDS011;10400;53.198;6.592;2023-08-30T04:15:49;14.25;;;11.60;;
20482;SDS011;10400;53.198;6.592;2023-08-30T04:18:16;17.85;;;12.45;;
20482;SDS011;10400;53.198;6.592;2023-08-30T04:20:45;13.68;;;11.48;;
20482;SDS011;10400;53.198;6.592;2023-08-30T04:23:11;15.70;;;12.02;;
20482;SDS011;10400;53.198;6.592;2023-08-30T04:25:37;16.25;;;12.23;;
20482;SDS011;10400;53.198;6.592;2023-08-30T04:28:03;16.00;;;12.35;;
20482;SDS011;10400;53.198;6.592;2023-08-30T04:30:29;15.70;;;12.35;;
20482;SDS011;10400;53.198;6.592;2023-08-30T04:32:55;15.57;;;11.85;;
20482;SDS011;10400;53.198;6.592;2023-08-30T04:35:21;15.88;;;12.43;;
20482;SDS011;10400;53.198;6.592;2023-08-30T04:37:46;14.30;;;11.27;;
20482;SDS011;10400;53.198;6.592;2023-08-30T04:40:13;15.48;;;11.95;;
20482;SDS011;10400;53.198;6.592;2023-08-30T04:42:39;15.65;;;12.10;;
20482;SDS011;10400;53.198;6.592;2023-08-30T04:45:05;14.55;;;10.95;;
20482;SDS011;10400;53.198;6.592;2023-08-30T04:47:32;16.88;;;12.15;;
20482;SDS011;10400;53.198;6.592;2023-08-30T04:49:58;14.55;;;10.77;;
20482;SDS011;10400;53.198;6.592;2023-08-30T04:52:24;15.50;;;11.20;;
20482;SDS011;10400;53.198;6.592;2023-08-30T04:54:50;16.60;;;11.40;;
20482;SDS011;10400;53.198;6.592;2023-08-30T04:57:16;15.85;;;11.40;;
20482;SDS011;10400;53.198;6.592;2023-08-30T04:59:42;14.95;;;11.68;;
20482;SDS011;10400;53.198;6.592;2023-08-30T05:02:09;16.30;;;11.75;;
20482;SDS011;10400;53.198;6.592;2023-08-30T05:04:35;16.80;;;11.10;;
20482;SDS011;10400;53.198;6.592;2023-08-30T05:07:01;14.02;;;11.32;;
20482;SDS011;10400;53.198;6.592;2023-08-30T05:09:28;16.42;;;10.88;;
20482;SDS011;10400;53.198;6.592;2023-08-30T05:11:55;15.60;;;11.02;;
20482;SDS011;10400;53.198;6.592;2023-08-30T05:14:20;15.88;;;11.27;;
20482;SDS011;10400;53.198;6.592;2023-08-30T05:16:46;15.60;;;10.50;;
20482;SDS011;10400;53.198;6.592;2023-08-30T05:19:12;14.55;;;10.93;;
20482;SDS011;10400;53.198;6.592;2023-08-30T05:21:37;15.10;;;11.02;;
20482;SDS011;10400;53.198;6.592;2023-08-30T05:24:03;13.15;;;10.23;;
20482;SDS011;10400;53.198;6.592;2023-08-30T05:26:32;17.58;;;10.00;;
20482;SDS011;10400;53.198;6.592;2023-08-30T05:28:57;14.65;;;9.70;;
20482;SDS011;10400;53.198;6.592;2023-08-30T05:31:23;12.88;;;10.02;;
20482;SDS011;10400;53.198;6.592;2023-08-30T05:33:49;12.63;;;10.73;;
20482;SDS011;10400;53.198;6.592;2023-08-30T05:36:14;13.48;;;10.52;;
20482;SDS011;10400;53.198;6.592;2023-08-30T05:38:40;15.98;;;10.80;;
20482;SDS011;10400;53.198;6.592;2023-08-30T05:41:06;13.18;;;11.35;;
20482;SDS011;10400;53.198;6.592;2023-08-30T05:43:32;13.80;;;11.10;;
20482;SDS011;10400;53.198;6.592;2023-08-30T05:45:58;13.90;;;10.30;;
20482;SDS011;10400;53.198;6.592;2023-08-30T05:48:27;15.07;;;11.05;;
20482;SDS011;10400;53.198;6.592;2023-08-30T05:50:56;14.10;;;10.75;;
20482;SDS011;10400;53.198;6.592;2023-08-30T05:53:22;19.85;;;11.00;;
20482;SDS011;10400;53.198;6.592;2023-08-30T05:55:48;14.68;;;10.75;;
20482;SDS011;10400;53.198;6.592;2023-08-30T05:58:14;14.05;;;10.93;;
20482;SDS011;10400;53.198;6.592;2023-08-30T06:00:40;14.23;;;10.48;;
20482;SDS011;10400;53.198;6.592;2023-08-30T06:03:06;11.90;;;10.40;;
20482;SDS011;10400;53.198;6.592;2023-08-30T06:05:33;14.40;;;10.50;;
20482;SDS011;10400;53.198;6.592;2023-08-30T06:07:58;14.00;;;10.45;;
20482;SDS011;10400;53.198;6.592;2023-08-30T06:10:24;12.32;;;10.25;;
20482;SDS011;10400;53.198;6.592;2023-08-30T06:12:50;15.65;;;11.18;;
20482;SDS011;10400;53.198;6.592;2023-08-30T06:15:15;15.45;;;10.93;;
20482;SDS011;10400;53.198;6.592;2023-08-30T06:17:41;17.10;;;11.45;;
20482;SDS011;10400;53.198;6.592;2023-08-30T06:20:07;14.55;;;10.48;;
20482;SDS011;10400;53.198;6.592;2023-08-30T06:22:33;13.50;;;9.63;;
20482;SDS011;10400;53.198;6.592;2023-08-30T06:24:58;15.73;;;11.20;;
20482;SDS011;10400;53.198;6.592;2023-08-30T06:27:24;14.48;;;10.18;;
20482;SDS011;10400;53.198;6.592;2023-08-30T06:29:50;14.45;;;10.95;;
20482;SDS011;10400;53.198;6.592;2023-08-30T06:32:16;13.85;;;10.80;;
20482;SDS011;10400;53.198;6.592;2023-08-30T06:34:42;13.70;;;10.07;;
20482;SDS011;10400;53.198;6.592;2023-08-30T06:37:08;13.50;;;10.02;;
20482;SDS011;10400;53.198;6.592;2023-08-30T06:39:33;16.20;;;10.35;;
20482;SDS011;10400;53.198;6.592;2023-08-30T06:42:00;15.32;;;10.10;;
20482;SDS011;10400;53.198;6.592;2023-08-30T06:44:26;12.10;;;10.45;;
20482;SDS011;10400;53.198;6.592;2023-08-30T06:46:52;13.52;;;9.20;;
20482;SDS011;10400;53.198;6.592;2023-08-30T06:49:17;14.45;;;9.90;;
20482;SDS011;10400;53.198;6.592;2023-08-30T06:51:43;15.48;;;10.23;;
20482;SDS011;10400;53.198;6.592;2023-08-30T06:54:09;13.30;;;9.90;;
20482;SDS011;10400;53.198;6.592;2023-08-30T06:56:34;14.55;;;9.63;;
20482;SDS011;10400;53.198;6.592;2023-08-30T06:59:00;13.23;;;9.43;;
20482;SDS011;10400;53.198;6.592;2023-08-30T07:01:26;14.60;;;9.68;;
20482;SDS011;10400;53.198;6.592;2023-08-30T07:03:51;11.60;;;8.57;;
20482;SDS011;10400;53.198;6.592;2023-08-30T07:06:17;17.35;;;9.85;;
20482;SDS011;10400;53.198;6.592;2023-08-30T07:08:43;15.48;;;9.60;;
20482;SDS011;10400;53.198;6.592;2023-08-30T07:11:08;13.85;;;9.10;;
20482;SDS011;10400;53.198;6.592;2023-08-30T07:13:35;14.93;;;9.10;;
20482;SDS011;10400;53.198;6.592;2023-08-30T07:16:01;11.35;;;8.77;;
20482;SDS011;10400;53.198;6.592;2023-08-30T07:18:26;11.32;;;8.70;;
20482;SDS011;10400;53.198;6.592;2023-08-30T07:20:52;11.93;;;8.32;;
20482;SDS011;10400;53.198;6.592;2023-08-30T07:23:18;11.30;;;8.25;;
20482;SDS011;10400;53.198;6.592;2023-08-30T07:25:43;12.38;;;8.65;;
20482;SDS011;10400;53.198;6.592;2023-08-30T07:28:09;11.93;;;8.02;;
20482;SDS011;10400;53.198;6.592;2023-08-30T07:30:36;14.45;;;8.57;;
20482;SDS011;10400;53.198;6.592;2023-08-30T07:33:02;11.07;;;8.23;;
20482;SDS011;10400;53.198;6.592;2023-08-30T07:35:29;10.82;;;8.52;;
20482;SDS011;10400;53.198;6.592;2023-08-30T07:37:55;13.05;;;8.85;;
20482;SDS011;10400;53.198;6.592;2023-08-30T07:40:21;13.23;;;8.65;;
20482;SDS011;10400;53.198;6.592;2023-08-30T07:42:51;15.85;;;8.30;;
20482;SDS011;10400;53.198;6.592;2023-08-30T07:45:17;14.25;;;8.57;;
20482;SDS011;10400;53.198;6.592;2023-08-30T07:47:43;13.85;;;8.85;;
20482;SDS011;10400;53.198;6.592;2023-08-30T07:50:08;9.90;;;7.53;;
20482;SDS011;10400;53.198;6.592;2023-08-30T07:52:34;10.98;;;7.53;;
20482;SDS011;10400;53.198;6.592;2023-08-30T07:55:00;13.60;;;7.88;;
20482;SDS011;10400;53.198;6.592;2023-08-30T07:57:25;13.40;;;7.28;;
20482;SDS011;10400;53.198;6.592;2023-08-30T07:59:52;11.82;;;7.57;;
20482;SDS011;10400;53.198;6.592;2023-08-30T10:28:15;9.50;;;7.10;;
20482;SDS011;10400;53.198;6.592;2023-08-30T10:30:42;10.93;;;7.45;;
20482;SDS011;10400;53.198;6.592;2023-08-30T10:33:11;10.60;;;7.47;;
20482;SDS011;10400;53.198;6.592;2023-08-30T10:35:46;9.52;;;7.35;;
20482;SDS011;10400;53.198;6.592;2023-08-30T10:38:23;13.15;;;7.35;;
20482;SDS011;10400;53.198;6.592;2023-08-30T10:40:53;11.35;;;8.02;;
20482;SDS011;10400;53.198;6.592;2023-08-30T10:43:30;9.85;;;7.15;;
20482;SDS011;10400;53.198;6.592;2023-08-30T10:46:00;9.60;;;7.05;;
20482;SDS011;10400;53.198;6.592;2023-08-30T10:48:35;10.68;;;6.43;;
20482;SDS011;10400;53.198;6.592;2023-08-30T10:51:53;8.70;;;6.15;;
20482;SDS011;10400;53.198;6.592;2023-08-30T10:57:02;8.50;;;5.55;;
20482;SDS011;10400;53.198;6.592;2023-08-30T10:59:28;7.93;;;5.18;;
20482;SDS011;10400;53.198;6.592;2023-08-30T11:01:54;7.70;;;5.78;;
20482;SDS011;10400;53.198;6.592;2023-08-30T11:04:21;10.25;;;5.25;;
20482;SDS011;10400;53.198;6.592;2023-08-30T11:06:48;9.50;;;4.72;;
20482;SDS011;10400;53.198;6.592;2023-08-30T11:09:15;7.55;;;5.00;;
20482;SDS011;10400;53.198;6.592;2023-08-30T11:11:49;9.40;;;5.38;;
20482;SDS011;10400;53.198;6.592;2023-08-30T11:14:16;6.53;;;4.47;;
20482;SDS011;10400;53.198;6.592;2023-08-30T11:16:43;8.80;;;4.85;;
20482;SDS011;10400;53.198;6.592;2023-08-30T11:19:09;7.93;;;5.22;;
20482;SDS011;10400;53.198;6.592;2023-08-30T11:21:36;9.02;;;5.40;;
20482;SDS011;10400;53.198;6.592;2023-08-30T11:24:04;7.43;;;5.40;;
20482;SDS011;10400;53.198;6.592;2023-08-30T11:26:31;9.55;;;5.05;;
20482;SDS011;10400;53.198;6.592;2023-08-30T11:28:56;7.97;;;4.47;;
20482;SDS011;10400;53.198;6.592;2023-08-30T11:31:23;5.78;;;4.32;;
20482;SDS011;10400;53.198;6.592;2023-08-30T11:33:52;7.80;;;4.00;;
20482;SDS011;10400;53.198;6.592;2023-08-30T11:36:21;8.45;;;4.00;;
20482;SDS011;10400;53.198;6.592;2023-08-30T11:38:50;8.00;;;4.38;;
20482;SDS011;10400;53.198;6.592;2023-08-30T11:41:17;7.15;;;3.95;;
20482;SDS011;10400;53.198;6.592;2023-08-30T11:43:44;4.82;;;3.25;;
20482;SDS011;10400;53.198;6.592;2023-08-30T11:46:10;5.57;;;3.15;;
20482;SDS011;10400;53.198;6.592;2023-08-30T11:48:37;4.43;;;3.05;;
20482;SDS011;10400;53.198;6.592;2023-08-30T11:51:06;4.47;;;3.40;;
20482;SDS011;10400;53.198;6.592;2023-08-30T11:53:33;4.78;;;3.55;;
20482;SDS011;10400;53.198;6.592;2023-08-30T11:55:59;4.18;;;3.38;;
20482;SDS011;10400;53.198;6.592;2023-08-30T11:58:25;4.95;;;3.58;;
20482;SDS011;10400;53.198;6.592;2023-08-30T12:00:50;5.63;;;3.88;;
20482;SDS011;10400;53.198;6.592;2023-08-30T12:03:18;6.50;;;3.65;;
20482;SDS011;10400;53.198;6.592;2023-08-30T12:05:48;4.97;;;3.58;;
20482;SDS011;10400;53.198;6.592;2023-08-30T12:08:28;6.63;;;3.75;;
20482;SDS011;10400;53.198;6.592;2023-08-30T12:10:55;6.55;;;3.88;;
20482;SDS011;10400;53.198;6.592;2023-08-30T12:13:43;6.80;;;4.40;;
20482;SDS011;10400;53.198;6.592;2023-08-30T12:16:07;7.78;;;4.88;;
20482;SDS011;10400;53.198;6.592;2023-08-30T12:18:33;6.88;;;4.10;;
20482;SDS011;10400;53.198;6.592;2023-08-30T12:21:02;5.30;;;4.28;;
20482;SDS011;10400;53.198;6.592;2023-08-30T12:23:32;5.50;;;4.40;;
20482;SDS011;10400;53.198;6.592;2023-08-30T12:28:34;8.10;;;5.70;;
20482;SDS011;10400;53.198;6.592;2023-08-30T12:31:01;8.00;;;5.93;;
20482;SDS011;10400;53.198;6.592;2023-08-30T12:33:29;8.68;;;6.43;;
20482;SDS011;10400;53.198;6.592;2023-08-30T12:35:55;9.88;;;6.13;;
20482;SDS011;10400;53.198;6.592;2023-08-30T12:38:22;8.70;;;5.93;;
20482;SDS011;10400;53.198;6.592;2023-08-30T12:40:49;9.05;;;5.32;;
20482;SDS011;10400;53.198;6.592;2023-08-30T12:43:19;9.18;;;6.43;;
20482;SDS011;10400;53.198;6.592;2023-08-30T12:45:45;7.45;;;6.05;;
20482;SDS011;10400;53.198;6.592;2023-08-30T12:48:12;10.75;;;6.75;;
20482;SDS011;10400;53.198;6.592;2023-08-30T12:50:40;9.35;;;6.07;;
20482;SDS011;10400;53.198;6.592;2023-08-30T12:53:07;10.70;;;6.60;;
20482;SDS011;10400;53.198;6.592;2023-08-30T12:55:33;8.80;;;6.85;;
20482;SDS011;10400;53.198;6.592;2023-08-30T12:57:59;8.82;;;7.30;;
20482;SDS011;10400;53.198;6.592;2023-08-30T13:00:25;10.98;;;7.15;;
20482;SDS011;10400;53.198;6.592;2023-08-30T13:02:51;9.75;;;7.10;;
20482;SDS011;10400;53.198;6.592;2023-08-30T13:05:17;9.70;;;7.30;;
20482;SDS011;10400;53.198;6.592;2023-08-30T13:07:43;9.90;;;7.03;;
20482;SDS011;10400;53.198;6.592;2023-08-30T13:10:09;11.13;;;8.18;;
20482;SDS011;10400;53.198;6.592;2023-08-30T13:12:35;10.15;;;7.10;;
20482;SDS011;10400;53.198;6.592;2023-08-30T13:15:02;10.43;;;7.68;;
20482;SDS011;10400;53.198;6.592;2023-08-30T13:17:30;10.60;;;8.43;;
20482;SDS011;10400;53.198;6.592;2023-08-30T13:19:56;10.68;;;7.80;;
20482;SDS011;10400;53.198;6.592;2023-08-30T13:22:23;9.32;;;7.60;;
20482;SDS011;10400;53.198;6.592;2023-08-30T13:24:49;10.48;;;7.65;;
20482;SDS011;10400;53.198;6.592;2023-08-30T13:27:15;11.52;;;8.07;;
20482;SDS011;10400;53.198;6.592;2023-08-30T13:29:40;10.68;;;8.35;;
20482;SDS011;10400;53.198;6.592;2023-08-30T13:32:06;9.95;;;8.02;;
20482;SDS011;10400;53.198;6.592;2023-08-30T13:34:32;8.40;;;6.85;;
20482;SDS011;10400;53.198;6.592;2023-08-30T13:36:57;8.70;;;7.30;;
20482;SDS011;10400;53.198;6.592;2023-08-30T13:39:23;9.48;;;7.07;;
20482;SDS011;10400;53.198;6.592;2023-08-30T13:41:49;9.10;;;7.53;;
20482;SDS011;10400;53.198;6.592;2023-08-30T13:44:15;10.30;;;7.47;;
20482;SDS011;10400;53.198;6.592;2023-08-30T13:46:41;11.85;;;8.23;;
20482;SDS011;10400;53.198;6.592;2023-08-30T13:49:08;10.93;;;8.27;;
20482;SDS011;10400;53.198;6.592;2023-08-30T13:51:34;12.80;;;8.80;;
20482;SDS011;10400;53.198;6.592;2023-08-30T13:53:59;13.13;;;9.27;;
20482;SDS011;10400;53.198;6.592;2023-08-30T13:56:25;12.77;;;8.88;;
20482;SDS011;10400;53.198;6.592;2023-08-30T13:58:51;13.52;;;8.55;;
20482;SDS011;10400;53.198;6.592;2023-08-30T14:01:16;9.38;;;7.72;;
20482;SDS011;10400;53.198;6.592;2023-08-30T14:03:42;9.38;;;7.88;;
20482;SDS011;10400;53.198;6.592;2023-08-30T14:06:08;8.25;;;6.90;;
20482;SDS011;10400;53.198;6.592;2023-08-30T14:08:34;9.32;;;6.63;;
20482;SDS011;10400;53.198;6.592;2023-08-30T14:11:00;9.80;;;7.20;;
20482;SDS011;10400;53.198;6.592;2023-08-30T14:13:26;7.55;;;6.75;;
20482;SDS011;10400;53.198;6.592;2023-08-30T14:15:58;8.10;;;6.68;;
20482;SDS011;10400;53.198;6.592;2023-08-30T14:18:28;10.25;;;7.50;;
20482;SDS011;10400;53.198;6.592;2023-08-30T14:20:57;8.40;;;6.60;;
20482;SDS011;10400;53.198;6.592;2023-08-30T14:23:26;8.77;;;6.97;;
20482;SDS011;10400;53.198;6.592;2023-08-30T14:25:59;7.72;;;6.88;;
20482;SDS011;10400;53.198;6.592;2023-08-30T14:28:26;10.75;;;7.07;;
20482;SDS011;10400;53.198;6.592;2023-08-30T14:30:52;9.70;;;8.15;;
20482;SDS011;10400;53.198;6.592;2023-08-30T14:33:19;10.73;;;6.85;;
20482;SDS011;10400;53.198;6.592;2023-08-30T14:35:45;11.05;;;7.32;;
20482;SDS011;10400;53.198;6.592;2023-08-30T14:38:11;9.90;;;7.82;;
20482;SDS011;10400;53.198;6.592;2023-08-30T14:40:36;9.85;;;7.90;;
20482;SDS011;10400;53.198;6.592;2023-08-30T14:43:03;9.55;;;7.50;;
20482;SDS011;10400;53.198;6.592;2023-08-30T14:45:29;8.68;;;7.65;;
20482;SDS011;10400;53.198;6.592;2023-08-30T14:47:55;9.13;;;7.15;;
20482;SDS011;10400;53.198;6.592;2023-08-30T14:50:21;9.98;;;7.95;;
20482;SDS011;10400;53.198;6.592;2023-08-30T14:52:46;10.98;;;8.05;;
20482;SDS011;10400;53.198;6.592;2023-08-30T14:55:12;9.48;;;7.53;;
20482;SDS011;10400;53.198;6.592;2023-08-30T14:57:38;9.07;;;7.95;;
20482;SDS011;10400;53.198;6.592;2023-08-30T15:00:04;9.02;;;6.93;;
20482;SDS011;10400;53.198;6.592;2023-08-30T15:02:30;9.60;;;7.18;;
20482;SDS011;10400;53.198;6.592;2023-08-30T15:04:56;9.68;;;7.10;;
20482;SDS011;10400;53.198;6.592;2023-08-30T15:07:22;7.18;;;6.07;;
20482;SDS011;10400;53.198;6.592;2023-08-30T15:09:48;6.82;;;5.30;;
20482;SDS011;10400;53.198;6.592;2023-08-30T15:12:14;8.55;;;6.15;;
20482;SDS011;10400;53.198;6.592;2023-08-30T15:14:40;7.05;;;5.40;;
20482;SDS011;10400;53.198;6.592;2023-08-30T15:17:07;6.97;;;5.20;;
20482;SDS011;10400;53.198;6.592;2023-08-30T15:19:33;5.55;;;4.47;;
20482;SDS011;10400;53.198;6.592;2023-08-30T15:21:59;4.85;;;3.85;;
20482;SDS011;10400;53.198;6.592;2023-08-30T15:24:25;8.20;;;4.60;;
20482;SDS011;10400;53.198;6.592;2023-08-30T15:26:50;4.50;;;3.78;;
20482;SDS011;10400;53.198;6.592;2023-08-30T15:29:16;4.55;;;3.97;;
20482;SDS011;10400;53.198;6.592;2023-08-30T15:31:42;4.85;;;4.13;;
20482;SDS011;10400;53.198;6.592;2023-08-30T15:34:08;3.78;;;3.38;;
20482;SDS011;10400;53.198;6.592;2023-08-30T15:36:34;4.68;;;3.20;;
20482;SDS011;10400;53.198;6.592;2023-08-30T15:38:59;3.72;;;3.22;;
20482;SDS011;10400;53.198;6.592;2023-08-30T15:41:25;6.45;;;3.60;;
20482;SDS011;10400;53.198;6.592;2023-08-30T15:43:51;3.53;;;2.97;;
20482;SDS011;10400;53.198;6.592;2023-08-30T15:46:16;4.50;;;3.10;;
20482;SDS011;10400;53.198;6.592;2023-08-30T15:48:42;4.43;;;3.15;;
20482;SDS011;10400;53.198;6.592;2023-08-30T15:51:09;3.08;;;2.75;;
20482;SDS011;10400;53.198;6.592;2023-08-30T15:53:35;3.38;;;2.78;;
20482;SDS011;10400;53.198;6.592;2023-08-30T15:56:01;3.45;;;3.15;;
20482;SDS011;10400;53.198;6.592;2023-08-30T15:58:26;4.32;;;2.88;;
20482;SDS011;10400;53.198;6.592;2023-08-30T16:00:52;3.72;;;2.95;;
20482;SDS011;10400;53.198;6.592;2023-08-30T16:03:18;3.95;;;2.95;;
20482;SDS011;10400;53.198;6.592;2023-08-30T16:05:43;7.10;;;3.70;;
20482;SDS011;10400;53.198;6.592;2023-08-30T16:08:10;3.97;;;2.83;;
20482;SDS011;10400;53.198;6.592;2023-08-30T16:10:36;6.68;;;4.32;;
20482;SDS011;10400;53.198;6.592;2023-08-30T16:13:02;6.47;;;4.03;;
20482;SDS011;10400;53.198;6.592;2023-08-30T16:15:28;4.78;;;3.33;;
20482;SDS011;10400;53.198;6.592;2023-08-30T16:17:57;8.20;;;4.70;;
20482;SDS011;10400;53.198;6.592;2023-08-30T16:20:23;6.00;;;4.60;;
20482;SDS011;10400;53.198;6.592;2023-08-30T16:22:49;5.45;;;3.95;;
20482;SDS011;10400;53.198;6.592;2023-08-30T16:25:15;5.45;;;3.95;;
20482;SDS011;10400;53.198;6.592;2023-08-30T16:27:41;7.22;;;3.92;;
20482;SDS011;10400;53.198;6.592;2023-08-30T16:30:07;8.68;;;4.57;;
20482;SDS011;10400;53.198;6.592;2023-08-30T16:32:33;6.47;;;4.85;;
20482;SDS011;10400;53.198;6.592;2023-08-30T16:34:59;5.97;;;3.70;;
20482;SDS011;10400;53.198;6.592;2023-08-30T16:37:25;7.45;;;3.30;;
20482;SDS011;10400;53.198;6.592;2023-08-30T16:39:50;5.70;;;3.80;;
20482;SDS011;10400;53.198;6.592;2023-08-30T16:42:17;5.32;;;3.10;;
20482;SDS011;10400;53.198;6.592;2023-08-30T16:44:43;3.58;;;2.90;;
20482;SDS011;10400;53.198;6.592;2023-08-30T16:47:09;4.43;;;2.50;;
20482;SDS011;10400;53.198;6.592;2023-08-30T16:49:35;5.88;;;3.65;;
20482;SDS011;10400;53.198;6.592;2023-08-30T16:52:00;4.53;;;2.50;;
20482;SDS011;10400;53.198;6.592;2023-08-30T16:54:26;3.97;;;2.70;;
20482;SDS011;10400;53.198;6.592;2023-08-30T16:56:52;5.97;;;3.00;;
20482;SDS011;10400;53.198;6.592;2023-08-30T16:59:18;3.97;;;2.40;;
20482;SDS011;10400;53.198;6.592;2023-08-30T17:01:44;5.68;;;2.90;;
20482;SDS011;10400;53.198;6.592;2023-08-30T17:04:09;4.40;;;2.47;;
20482;SDS011;10400;53.198;6.592;2023-08-30T17:06:37;5.22;;;2.45;;